sensor_id;sensor_type;location;lat;lon;timestamp;P1;durP1;ratioP1;P2;durP2;ratioP2
53710;SDS011;39605;52.704;6.752;2023-10-08T00:01:36;2.65;;;0.60;;
53710;SDS011;39605;52.704;6.752;2023-10-08T00:04:07;2.17;;;0.60;;
53710;SDS011;39605;52.704;6.752;2023-10-08T00:06:33;1.25;;;0.55;;
53710;SDS011;39605;52.704;6.752;2023-10-08T00:09:00;1.67;;;0.40;;
53710;SDS011;39605;52.704;6.752;2023-10-08T00:11:31;1.65;;;0.45;;
53710;SDS011;39605;52.704;6.752;2023-10-08T00:13:57;1.58;;;0.40;;
53710;SDS011;39605;52.704;6.752;2023-10-08T00:16:26;0.88;;;0.30;;
53710;SDS011;39605;52.704;6.752;2023-10-08T00:18:53;1.10;;;0.30;;
53710;SDS011;39605;52.704;6.752;2023-10-08T00:21:24;1.08;;;0.20;;
53710;SDS011;39605;52.704;6.752;2023-10-08T00:23:55;1.08;;;0.10;;
53710;SDS011;39605;52.704;6.752;2023-10-08T00:26:23;0.43;;;0.10;;
53710;SDS011;39605;52.704;6.752;2023-10-08T00:29:00;0.82;;;0.10;;
53710;SDS011;39605;52.704;6.752;2023-10-08T00:31:31;1.00;;;0.00;;
53710;SDS011;39605;52.704;6.752;2023-10-08T00:34:03;0.40;;;0.10;;
53710;SDS011;39605;52.704;6.752;2023-10-08T00:36:36;2.67;;;0.10;;
53710;SDS011;39605;52.704;6.752;2023-10-08T00:39:03;1.58;;;0.10;;
53710;SDS011;39605;52.704;6.752;2023-10-08T00:41:33;1.13;;;0.10;;
53710;SDS011;39605;52.704;6.752;2023-10-08T00:43:59;0.75;;;0.10;;
53710;SDS011;39605;52.704;6.752;2023-10-08T00:46:26;1.52;;;0.10;;
53710;SDS011;39605;52.704;6.752;2023-10-08T00:49:01;0.80;;;0.17;;
53710;SDS011;39605;52.704;6.752;2023-10-08T00:51:53;0.90;;;0.10;;
53710;SDS011;39605;52.704;6.752;2023-10-08T00:54:35;0.47;;;0.10;;
53710;SDS011;39605;52.704;6.752;2023-10-08T00:57:15;1.40;;;0.10;;
53710;SDS011;39605;52.704;6.752;2023-10-08T00:59:45;1.08;;;0.20;;
53710;SDS011;39605;52.704;6.752;2023-10-08T01:02:18;2.70;;;0.20;;
53710;SDS011;39605;52.704;6.752;2023-10-08T01:04:46;1.33;;;0.20;;
53710;SDS011;39605;52.704;6.752;2023-10-08T01:07:12;1.33;;;0.20;;
53710;SDS011;39605;52.704;6.752;2023-10-08T01:09:41;0.32;;;0.22;;
53710;SDS011;39605;52.704;6.752;2023-10-08T01:14:45;1.70;;;0.20;;
53710;SDS011;39605;52.704;6.752;2023-10-08T01:17:13;0.75;;;0.30;;
53710;SDS011;39605;52.704;6.752;2023-10-08T01:19:42;1.08;;;0.30;;
53710;SDS011;39605;52.704;6.752;2023-10-08T01:22:13;0.63;;;0.30;;
53710;SDS011;39605;52.704;6.752;2023-10-08T01:24:47;1.35;;;0.30;;
53710;SDS011;39605;52.704;6.752;2023-10-08T01:27:14;1.42;;;0.30;;
53710;SDS011;39605;52.704;6.752;2023-10-08T01:29:47;1.58;;;0.30;;
53710;SDS011;39605;52.704;6.752;2023-10-08T01:32:15;0.55;;;0.30;;
53710;SDS011;39605;52.704;6.752;2023-10-08T01:34:41;0.52;;;0.25;;
53710;SDS011;39605;52.704;6.752;2023-10-08T01:37:14;0.50;;;0.30;;
53710;SDS011;39605;52.704;6.752;2023-10-08T01:39:42;2.47;;;0.40;;
53710;SDS011;39605;52.704;6.752;2023-10-08T01:42:09;1.52;;;0.47;;
53710;SDS011;39605;52.704;6.752;2023-10-08T01:44:43;2.55;;;0.32;;
53710;SDS011;39605;52.704;6.752;2023-10-08T01:47:11;0.45;;;0.30;;
53710;SDS011;39605;52.704;6.752;2023-10-08T01:49:37;1.77;;;0.40;;
53710;SDS011;39605;52.704;6.752;2023-10-08T01:52:05;1.83;;;0.30;;
53710;SDS011;39605;52.704;6.752;2023-10-08T01:54:32;1.75;;;0.40;;
53710;SDS011;39605;52.704;6.752;2023-10-08T01:57:01;1.05;;;0.30;;
53710;SDS011;39605;52.704;6.752;2023-10-08T01:59:30;1.15;;;0.30;;
53710;SDS011;39605;52.704;6.752;2023-10-08T02:01:57;1.48;;;0.30;;
53710;SDS011;39605;52.704;6.752;2023-10-08T02:04:24;0.65;;;0.30;;
53710;SDS011;39605;52.704;6.752;2023-10-08T02:06:50;0.60;;;0.30;;
53710;SDS011;39605;52.704;6.752;2023-10-08T02:09:16;2.13;;;0.30;;
53710;SDS011;39605;52.704;6.752;2023-10-08T02:11:48;0.88;;;0.28;;
53710;SDS011;39605;52.704;6.752;2023-10-08T02:14:18;1.10;;;0.30;;
53710;SDS011;39605;52.704;6.752;2023-10-08T02:16:45;0.60;;;0.30;;
53710;SDS011;39605;52.704;6.752;2023-10-08T02:19:12;3.60;;;0.63;;
53710;SDS011;39605;52.704;6.752;2023-10-08T02:21:39;0.85;;;0.30;;
53710;SDS011;39605;52.704;6.752;2023-10-08T02:24:05;1.08;;;0.30;;
53710;SDS011;39605;52.704;6.752;2023-10-08T02:26:32;1.30;;;0.38;;
53710;SDS011;39605;52.704;6.752;2023-10-08T02:29:00;0.80;;;0.40;;
53710;SDS011;39605;52.704;6.752;2023-10-08T02:31:26;0.80;;;0.50;;
53710;SDS011;39605;52.704;6.752;2023-10-08T02:33:53;1.10;;;0.32;;
53710;SDS011;39605;52.704;6.752;2023-10-08T02:36:19;1.80;;;0.40;;
53710;SDS011;39605;52.704;6.752;2023-10-08T02:38:45;1.30;;;0.40;;
53710;SDS011;39605;52.704;6.752;2023-10-08T02:41:17;0.52;;;0.40;;
53710;SDS011;39605;52.704;6.752;2023-10-08T02:43:43;0.98;;;0.30;;
53710;SDS011;39605;52.704;6.752;2023-10-08T02:46:10;1.00;;;0.40;;
53710;SDS011;39605;52.704;6.752;2023-10-08T02:48:40;2.65;;;0.40;;
53710;SDS011;39605;52.704;6.752;2023-10-08T02:51:06;2.67;;;0.47;;
53710;SDS011;39605;52.704;6.752;2023-10-08T02:53:39;0.80;;;0.30;;
53710;SDS011;39605;52.704;6.752;2023-10-08T02:56:09;0.52;;;0.40;;
53710;SDS011;39605;52.704;6.752;2023-10-08T02:58:41;2.15;;;0.43;;
53710;SDS011;39605;52.704;6.752;2023-10-08T03:01:12;1.80;;;0.47;;
53710;SDS011;39605;52.704;6.752;2023-10-08T03:03:40;1.48;;;0.40;;
53710;SDS011;39605;52.704;6.752;2023-10-08T03:06:07;0.98;;;0.32;;
53710;SDS011;39605;52.704;6.752;2023-10-08T03:08:40;0.90;;;0.50;;
53710;SDS011;39605;52.704;6.752;2023-10-08T03:11:10;1.30;;;0.40;;
53710;SDS011;39605;52.704;6.752;2023-10-08T03:13:43;0.70;;;0.50;;
53710;SDS011;39605;52.704;6.752;2023-10-08T03:16:14;1.42;;;0.55;;
53710;SDS011;39605;52.704;6.752;2023-10-08T03:18:40;1.55;;;0.47;;
53710;SDS011;39605;52.704;6.752;2023-10-08T03:21:09;1.25;;;0.40;;
53710;SDS011;39605;52.704;6.752;2023-10-08T03:24:07;1.52;;;0.40;;
53710;SDS011;39605;52.704;6.752;2023-10-08T03:27:00;2.65;;;0.52;;
53710;SDS011;39605;52.704;6.752;2023-10-08T03:29:37;0.80;;;0.50;;
53710;SDS011;39605;52.704;6.752;2023-10-08T03:32:10;3.42;;;0.40;;
53710;SDS011;39605;52.704;6.752;2023-10-08T03:34:46;1.02;;;0.40;;
53710;SDS011;39605;52.704;6.752;2023-10-08T03:37:13;1.25;;;0.30;;
53710;SDS011;39605;52.704;6.752;2023-10-08T03:39:46;1.60;;;0.40;;
53710;SDS011;39605;52.704;6.752;2023-10-08T03:42:26;1.05;;;0.50;;
53710;SDS011;39605;52.704;6.752;2023-10-08T03:45:00;1.33;;;0.57;;
53710;SDS011;39605;52.704;6.752;2023-10-08T03:47:38;2.42;;;0.40;;
53710;SDS011;39605;52.704;6.752;2023-10-08T03:50:11;2.08;;;0.50;;
53710;SDS011;39605;52.704;6.752;2023-10-08T03:52:42;2.25;;;0.60;;
53710;SDS011;39605;52.704;6.752;2023-10-08T03:55:09;1.42;;;0.68;;
53710;SDS011;39605;52.704;6.752;2023-10-08T03:57:45;1.05;;;0.40;;
53710;SDS011;39605;52.704;6.752;2023-10-08T04:00:14;0.75;;;0.55;;
53710;SDS011;39605;52.704;6.752;2023-10-08T04:02:44;1.83;;;0.60;;
53710;SDS011;39605;52.704;6.752;2023-10-08T04:05:25;1.55;;;0.70;;
53710;SDS011;39605;52.704;6.752;2023-10-08T04:08:08;1.42;;;0.50;;
53710;SDS011;39605;52.704;6.752;2023-10-08T04:10:49;2.92;;;0.55;;
53710;SDS011;39605;52.704;6.752;2023-10-08T04:13:33;2.35;;;0.60;;
53710;SDS011;39605;52.704;6.752;2023-10-08T04:15:59;2.55;;;0.73;;
53710;SDS011;39605;52.704;6.752;2023-10-08T04:18:26;3.08;;;0.50;;
53710;SDS011;39605;52.704;6.752;2023-10-08T04:20:52;2.00;;;0.80;;
53710;SDS011;39605;52.704;6.752;2023-10-08T04:23:30;2.88;;;0.77;;
53710;SDS011;39605;52.704;6.752;2023-10-08T04:25:56;1.33;;;0.60;;
53710;SDS011;39605;52.704;6.752;2023-10-08T04:28:22;1.80;;;0.80;;
53710;SDS011;39605;52.704;6.752;2023-10-08T04:30:53;1.92;;;0.70;;
53710;SDS011;39605;52.704;6.752;2023-10-08T04:33:26;1.80;;;0.57;;
53710;SDS011;39605;52.704;6.752;2023-10-08T04:35:52;1.05;;;0.70;;
53710;SDS011;39605;52.704;6.752;2023-10-08T04:38:22;1.20;;;0.60;;
53710;SDS011;39605;52.704;6.752;2023-10-08T04:40:49;1.58;;;0.50;;
53710;SDS011;39605;52.704;6.752;2023-10-08T04:43:19;1.65;;;1.10;;
53710;SDS011;39605;52.704;6.752;2023-10-08T04:46:00;1.75;;;0.70;;
53710;SDS011;39605;52.704;6.752;2023-10-08T04:48:48;3.25;;;0.55;;
53710;SDS011;39605;52.704;6.752;2023-10-08T04:51:17;2.78;;;0.80;;
53710;SDS011;39605;52.704;6.752;2023-10-08T04:53:47;2.55;;;0.60;;
53710;SDS011;39605;52.704;6.752;2023-10-08T04:56:14;2.28;;;0.82;;
53710;SDS011;39605;52.704;6.752;2023-10-08T04:58:44;1.58;;;0.75;;
53710;SDS011;39605;52.704;6.752;2023-10-08T05:01:14;2.90;;;1.13;;
53710;SDS011;39605;52.704;6.752;2023-10-08T05:06:21;1.00;;;0.70;;
53710;SDS011;39605;52.704;6.752;2023-10-08T05:09:07;2.40;;;1.10;;
53710;SDS011;39605;52.704;6.752;2023-10-08T05:11:50;2.33;;;1.05;;
53710;SDS011;39605;52.704;6.752;2023-10-08T05:14:20;1.92;;;1.00;;
53710;SDS011;39605;52.704;6.752;2023-10-08T05:17:02;3.13;;;1.48;;
53710;SDS011;39605;52.704;6.752;2023-10-08T05:19:34;2.13;;;1.00;;
53710;SDS011;39605;52.704;6.752;2023-10-08T05:22:10;4.40;;;1.15;;
53710;SDS011;39605;52.704;6.752;2023-10-08T05:24:55;1.38;;;0.82;;
53710;SDS011;39605;52.704;6.752;2023-10-08T05:27:51;2.08;;;0.93;;
53710;SDS011;39605;52.704;6.752;2023-10-08T05:30:18;1.65;;;0.88;;
53710;SDS011;39605;52.704;6.752;2023-10-08T05:32:54;1.38;;;0.90;;
53710;SDS011;39605;52.704;6.752;2023-10-08T05:35:40;2.20;;;0.93;;
53710;SDS011;39605;52.704;6.752;2023-10-08T05:38:10;1.42;;;0.80;;
53710;SDS011;39605;52.704;6.752;2023-10-08T05:41:02;2.80;;;0.80;;
53710;SDS011;39605;52.704;6.752;2023-10-08T05:43:30;4.30;;;0.90;;
53710;SDS011;39605;52.704;6.752;2023-10-08T05:46:23;3.55;;;0.70;;
53710;SDS011;39605;52.704;6.752;2023-10-08T05:48:52;2.05;;;0.73;;
53710;SDS011;39605;52.704;6.752;2023-10-08T05:51:31;2.75;;;0.70;;
53710;SDS011;39605;52.704;6.752;2023-10-08T05:54:20;3.15;;;0.68;;
53710;SDS011;39605;52.704;6.752;2023-10-08T05:56:53;2.85;;;0.70;;
53710;SDS011;39605;52.704;6.752;2023-10-08T05:59:34;1.63;;;0.60;;
53710;SDS011;39605;52.704;6.752;2023-10-08T06:02:08;2.72;;;0.90;;
53710;SDS011;39605;52.704;6.752;2023-10-08T06:04:53;2.60;;;0.90;;
53710;SDS011;39605;52.704;6.752;2023-10-08T06:07:44;2.47;;;0.70;;
53710;SDS011;39605;52.704;6.752;2023-10-08T06:10:17;4.32;;;0.70;;
53710;SDS011;39605;52.704;6.752;2023-10-08T06:13:13;3.80;;;0.80;;
53710;SDS011;39605;52.704;6.752;2023-10-08T06:16:08;2.20;;;0.63;;
53710;SDS011;39605;52.704;6.752;2023-10-08T06:18:38;3.40;;;0.75;;
53710;SDS011;39605;52.704;6.752;2023-10-08T06:21:05;2.60;;;0.70;;
53710;SDS011;39605;52.704;6.752;2023-10-08T06:23:37;1.85;;;0.50;;
53710;SDS011;39605;52.704;6.752;2023-10-08T06:26:03;4.13;;;1.02;;
53710;SDS011;39605;52.704;6.752;2023-10-08T06:28:36;6.00;;;0.88;;
53710;SDS011;39605;52.704;6.752;2023-10-08T06:31:03;5.10;;;0.60;;
53710;SDS011;39605;52.704;6.752;2023-10-08T06:33:37;2.85;;;1.10;;
53710;SDS011;39605;52.704;6.752;2023-10-08T06:36:03;2.25;;;0.70;;
53710;SDS011;39605;52.704;6.752;2023-10-08T06:38:41;2.80;;;0.80;;
53710;SDS011;39605;52.704;6.752;2023-10-08T06:41:09;2.72;;;0.70;;
53710;SDS011;39605;52.704;6.752;2023-10-08T06:43:44;5.40;;;0.55;;
53710;SDS011;39605;52.704;6.752;2023-10-08T06:46:28;4.15;;;0.55;;
53710;SDS011;39605;52.704;6.752;2023-10-08T06:49:03;2.83;;;0.50;;
53710;SDS011;39605;52.704;6.752;2023-10-08T06:51:36;2.92;;;0.50;;
53710;SDS011;39605;52.704;6.752;2023-10-08T06:54:02;5.03;;;0.45;;
53710;SDS011;39605;52.704;6.752;2023-10-08T06:56:35;5.93;;;0.60;;
53710;SDS011;39605;52.704;6.752;2023-10-08T06:59:01;2.33;;;0.43;;
53710;SDS011;39605;52.704;6.752;2023-10-08T07:01:28;5.30;;;0.55;;
53710;SDS011;39605;52.704;6.752;2023-10-08T07:04:13;7.97;;;0.57;;
53710;SDS011;39605;52.704;6.752;2023-10-08T07:06:39;3.40;;;0.57;;
53710;SDS011;39605;52.704;6.752;2023-10-08T07:09:06;5.15;;;0.65;;
53710;SDS011;39605;52.704;6.752;2023-10-08T07:11:47;2.40;;;0.30;;
53710;SDS011;39605;52.704;6.752;2023-10-08T07:14:14;9.13;;;0.70;;
53710;SDS011;39605;52.704;6.752;2023-10-08T07:16:40;3.97;;;0.65;;
53710;SDS011;39605;52.704;6.752;2023-10-08T07:19:07;1.67;;;0.40;;
53710;SDS011;39605;52.704;6.752;2023-10-08T07:21:43;3.65;;;0.52;;
53710;SDS011;39605;52.704;6.752;2023-10-08T07:24:13;3.08;;;0.40;;
53710;SDS011;39605;52.704;6.752;2023-10-08T07:26:47;4.55;;;0.57;;
53710;SDS011;39605;52.704;6.752;2023-10-08T07:29:14;4.85;;;0.50;;
53710;SDS011;39605;52.704;6.752;2023-10-08T07:31:47;5.22;;;0.80;;
53710;SDS011;39605;52.704;6.752;2023-10-08T07:34:20;3.65;;;0.55;;
53710;SDS011;39605;52.704;6.752;2023-10-08T07:36:49;8.68;;;0.70;;
53710;SDS011;39605;52.704;6.752;2023-10-08T07:39:16;5.55;;;0.55;;
53710;SDS011;39605;52.704;6.752;2023-10-08T07:41:50;3.47;;;0.50;;
53710;SDS011;39605;52.704;6.752;2023-10-08T07:44:16;5.22;;;0.40;;
53710;SDS011;39605;52.704;6.752;2023-10-08T07:46:48;4.55;;;0.40;;
53710;SDS011;39605;52.704;6.752;2023-10-08T07:49:14;5.20;;;0.50;;
53710;SDS011;39605;52.704;6.752;2023-10-08T07:51:40;2.75;;;0.30;;
53710;SDS011;39605;52.704;6.752;2023-10-08T07:54:06;7.00;;;0.40;;
53710;SDS011;39605;52.704;6.752;2023-10-08T07:56:35;5.65;;;0.30;;
53710;SDS011;39605;52.704;6.752;2023-10-08T07:59:02;6.40;;;0.43;;
53710;SDS011;39605;52.704;6.752;2023-10-08T08:01:34;6.07;;;0.40;;
53710;SDS011;39605;52.704;6.752;2023-10-08T08:04:00;5.53;;;0.40;;
53710;SDS011;39605;52.704;6.752;2023-10-08T08:06:26;4.97;;;0.40;;
53710;SDS011;39605;52.704;6.752;2023-10-08T08:08:52;4.00;;;0.45;;
53710;SDS011;39605;52.704;6.752;2023-10-08T08:11:20;8.38;;;0.40;;
53710;SDS011;39605;52.704;6.752;2023-10-08T08:13:51;6.10;;;0.45;;
53710;SDS011;39605;52.704;6.752;2023-10-08T08:16:17;8.93;;;0.50;;
53710;SDS011;39605;52.704;6.752;2023-10-08T08:18:46;4.88;;;0.40;;
53710;SDS011;39605;52.704;6.752;2023-10-08T08:21:14;2.70;;;0.50;;
53710;SDS011;39605;52.704;6.752;2023-10-08T08:23:47;3.90;;;0.50;;
53710;SDS011;39605;52.704;6.752;2023-10-08T08:26:16;7.60;;;0.50;;
53710;SDS011;39605;52.704;6.752;2023-10-08T08:28:52;5.93;;;0.50;;
53710;SDS011;39605;52.704;6.752;2023-10-08T08:31:19;8.07;;;0.77;;
53710;SDS011;39605;52.704;6.752;2023-10-08T08:33:45;7.22;;;0.57;;
53710;SDS011;39605;52.704;6.752;2023-10-08T08:36:18;5.78;;;0.47;;
53710;SDS011;39605;52.704;6.752;2023-10-08T08:38:44;4.93;;;0.40;;
53710;SDS011;39605;52.704;6.752;2023-10-08T08:41:10;8.35;;;0.75;;
53710;SDS011;39605;52.704;6.752;2023-10-08T08:43:38;7.95;;;0.65;;
53710;SDS011;39605;52.704;6.752;2023-10-08T08:46:09;6.05;;;0.50;;
53710;SDS011;39605;52.704;6.752;2023-10-08T08:48:41;2.65;;;0.40;;
53710;SDS011;39605;52.704;6.752;2023-10-08T08:51:09;5.90;;;0.45;;
53710;SDS011;39605;52.704;6.752;2023-10-08T08:53:36;4.75;;;0.40;;
53710;SDS011;39605;52.704;6.752;2023-10-08T08:56:02;6.90;;;0.45;;
53710;SDS011;39605;52.704;6.752;2023-10-08T08:58:32;6.38;;;0.73;;
53710;SDS011;39605;52.704;6.752;2023-10-08T09:00:59;4.13;;;0.43;;
53710;SDS011;39605;52.704;6.752;2023-10-08T09:03:25;4.35;;;0.43;;
53710;SDS011;39605;52.704;6.752;2023-10-08T09:05:58;4.85;;;0.63;;
53710;SDS011;39605;52.704;6.752;2023-10-08T09:08:28;6.28;;;0.75;;
53710;SDS011;39605;52.704;6.752;2023-10-08T09:10:59;6.05;;;0.68;;
53710;SDS011;39605;52.704;6.752;2023-10-08T09:13:30;6.88;;;0.50;;
53710;SDS011;39605;52.704;6.752;2023-10-08T09:16:18;6.97;;;0.60;;
53710;SDS011;39605;52.704;6.752;2023-10-08T09:18:44;5.57;;;0.43;;
53710;SDS011;39605;52.704;6.752;2023-10-08T09:21:11;5.68;;;0.50;;
53710;SDS011;39605;52.704;6.752;2023-10-08T09:23:41;4.35;;;0.40;;
53710;SDS011;39605;52.704;6.752;2023-10-08T09:26:13;7.57;;;0.57;;
53710;SDS011;39605;52.704;6.752;2023-10-08T09:28:46;3.97;;;0.50;;
53710;SDS011;39605;52.704;6.752;2023-10-08T09:31:12;10.48;;;0.57;;
53710;SDS011;39605;52.704;6.752;2023-10-08T09:33:38;7.05;;;0.40;;
53710;SDS011;39605;52.704;6.752;2023-10-08T09:36:05;4.95;;;0.45;;
53710;SDS011;39605;52.704;6.752;2023-10-08T09:38:36;7.10;;;0.45;;
53710;SDS011;39605;52.704;6.752;2023-10-08T09:41:02;7.43;;;0.80;;
53710;SDS011;39605;52.704;6.752;2023-10-08T09:43:29;6.65;;;0.60;;
53710;SDS011;39605;52.704;6.752;2023-10-08T09:46:03;4.97;;;0.50;;
53710;SDS011;39605;52.704;6.752;2023-10-08T09:48:31;5.45;;;0.50;;
53710;SDS011;39605;52.704;6.752;2023-10-08T09:50:59;8.30;;;0.45;;
53710;SDS011;39605;52.704;6.752;2023-10-08T09:53:28;4.97;;;0.45;;
53710;SDS011;39605;52.704;6.752;2023-10-08T09:55:57;4.93;;;0.30;;
53710;SDS011;39605;52.704;6.752;2023-10-08T09:58:24;4.70;;;0.50;;
53710;SDS011;39605;52.704;6.752;2023-10-08T10:00:51;3.85;;;0.35;;
53710;SDS011;39605;52.704;6.752;2023-10-08T10:03:19;4.68;;;0.30;;
53710;SDS011;39605;52.704;6.752;2023-10-08T10:05:46;5.63;;;0.50;;
53710;SDS011;39605;52.704;6.752;2023-10-08T10:08:13;6.22;;;0.57;;
53710;SDS011;39605;52.704;6.752;2023-10-08T10:10:40;6.75;;;0.70;;
53710;SDS011;39605;52.704;6.752;2023-10-08T10:13:10;4.50;;;0.50;;
53710;SDS011;39605;52.704;6.752;2023-10-08T10:15:37;6.30;;;0.65;;
53710;SDS011;39605;52.704;6.752;2023-10-08T10:18:13;5.85;;;0.57;;
53710;SDS011;39605;52.704;6.752;2023-10-08T10:20:39;3.38;;;0.38;;
53710;SDS011;39605;52.704;6.752;2023-10-08T10:24:12;6.82;;;0.60;;
53710;SDS011;39605;52.704;6.752;2023-10-08T10:26:03;5.90;;;0.40;;
53710;SDS011;39605;52.704;6.752;2023-10-08T10:28:29;4.57;;;0.50;;
53710;SDS011;39605;52.704;6.752;2023-10-08T10:30:55;8.32;;;0.70;;
53710;SDS011;39605;52.704;6.752;2023-10-08T10:33:29;3.80;;;0.40;;
53710;SDS011;39605;52.704;6.752;2023-10-08T10:35:55;4.63;;;0.52;;
53710;SDS011;39605;52.704;6.752;2023-10-08T10:38:21;4.65;;;0.60;;
53710;SDS011;39605;52.704;6.752;2023-10-08T10:40:51;5.10;;;0.38;;
53710;SDS011;39605;52.704;6.752;2023-10-08T10:43:26;4.70;;;0.50;;
53710;SDS011;39605;52.704;6.752;2023-10-08T10:45:59;5.97;;;0.57;;
53710;SDS011;39605;52.704;6.752;2023-10-08T10:48:45;6.68;;;0.47;;
53710;SDS011;39605;52.704;6.752;2023-10-08T10:54:01;7.85;;;0.60;;
53710;SDS011;39605;52.704;6.752;2023-10-08T10:56:33;7.65;;;0.40;;
53710;SDS011;39605;52.704;6.752;2023-10-08T10:59:07;4.82;;;0.60;;
53710;SDS011;39605;52.704;6.752;2023-10-08T11:01:52;8.55;;;0.50;;
53710;SDS011;39605;52.704;6.752;2023-10-08T11:04:36;7.50;;;0.80;;
53710;SDS011;39605;52.704;6.752;2023-10-08T11:07:28;5.53;;;0.68;;
53710;SDS011;39605;52.704;6.752;2023-10-08T11:09:54;3.60;;;0.50;;
53710;SDS011;39605;52.704;6.752;2023-10-08T11:12:20;4.18;;;0.40;;
53710;SDS011;39605;52.704;6.752;2023-10-08T11:14:57;6.82;;;0.60;;
53710;SDS011;39605;52.704;6.752;2023-10-08T11:17:24;4.97;;;0.60;;
53710;SDS011;39605;52.704;6.752;2023-10-08T11:19:51;5.15;;;0.60;;
53710;SDS011;39605;52.704;6.752;2023-10-08T11:22:18;8.35;;;0.85;;
53710;SDS011;39605;52.704;6.752;2023-10-08T11:24:48;7.57;;;0.73;;
53710;SDS011;39605;52.704;6.752;2023-10-08T11:27:19;5.82;;;0.90;;
53710;SDS011;39605;52.704;6.752;2023-10-08T11:29:55;5.88;;;0.40;;
53710;SDS011;39605;52.704;6.752;2023-10-08T11:32:23;6.07;;;0.40;;
53710;SDS011;39605;52.704;6.752;2023-10-08T11:34:56;6.15;;;0.40;;
53710;SDS011;39605;52.704;6.752;2023-10-08T11:37:28;6.60;;;0.60;;
53710;SDS011;39605;52.704;6.752;2023-10-08T11:39:55;5.78;;;0.75;;
53710;SDS011;39605;52.704;6.752;2023-10-08T11:42:24;5.50;;;0.40;;
53710;SDS011;39605;52.704;6.752;2023-10-08T11:44:56;7.60;;;0.85;;
53710;SDS011;39605;52.704;6.752;2023-10-08T11:47:42;6.40;;;0.80;;
53710;SDS011;39605;52.704;6.752;2023-10-08T11:50:10;6.88;;;0.52;;
53710;SDS011;39605;52.704;6.752;2023-10-08T11:52:41;3.33;;;0.75;;
53710;SDS011;39605;52.704;6.752;2023-10-08T11:55:08;6.30;;;0.50;;
53710;SDS011;39605;52.704;6.752;2023-10-08T11:57:34;6.57;;;0.50;;
53710;SDS011;39605;52.704;6.752;2023-10-08T12:00:01;5.97;;;0.60;;
53710;SDS011;39605;52.704;6.752;2023-10-08T12:02:44;6.32;;;0.45;;
53710;SDS011;39605;52.704;6.752;2023-10-08T12:05:10;5.55;;;0.47;;
53710;SDS011;39605;52.704;6.752;2023-10-08T12:07:45;6.33;;;0.63;;
53710;SDS011;39605;52.704;6.752;2023-10-08T12:10:11;4.28;;;0.85;;
53710;SDS011;39605;52.704;6.752;2023-10-08T12:12:38;6.40;;;0.68;;
53710;SDS011;39605;52.704;6.752;2023-10-08T12:15:05;5.18;;;0.50;;
53710;SDS011;39605;52.704;6.752;2023-10-08T12:17:34;3.03;;;0.40;;
53710;SDS011;39605;52.704;6.752;2023-10-08T12:20:05;7.55;;;0.40;;
53710;SDS011;39605;52.704;6.752;2023-10-08T12:22:48;4.03;;;0.50;;
53710;SDS011;39605;52.704;6.752;2023-10-08T12:25:14;3.90;;;0.50;;
53710;SDS011;39605;52.704;6.752;2023-10-08T12:27:40;2.75;;;0.40;;
53710;SDS011;39605;52.704;6.752;2023-10-08T12:30:07;4.30;;;0.43;;
53710;SDS011;39605;52.704;6.752;2023-10-08T12:32:36;7.68;;;0.52;;
53710;SDS011;39605;52.704;6.752;2023-10-08T12:35:07;4.65;;;0.47;;
53710;SDS011;39605;52.704;6.752;2023-10-08T12:37:40;5.25;;;0.43;;
53710;SDS011;39605;52.704;6.752;2023-10-08T12:40:09;7.13;;;0.40;;
53710;SDS011;39605;52.704;6.752;2023-10-08T12:42:48;3.00;;;0.47;;
53710;SDS011;39605;52.704;6.752;2023-10-08T12:45:15;4.60;;;0.40;;
53710;SDS011;39605;52.704;6.752;2023-10-08T12:47:49;5.07;;;0.57;;
53710;SDS011;39605;52.704;6.752;2023-10-08T12:50:16;3.88;;;0.40;;
53710;SDS011;39605;52.704;6.752;2023-10-08T12:52:45;5.65;;;0.55;;
53710;SDS011;39605;52.704;6.752;2023-10-08T12:55:20;5.45;;;0.40;;
53710;SDS011;39605;52.704;6.752;2023-10-08T12:57:52;4.25;;;0.35;;
53710;SDS011;39605;52.704;6.752;2023-10-08T13:00:31;7.72;;;0.40;;
53710;SDS011;39605;52.704;6.752;2023-10-08T13:02:57;5.55;;;0.47;;
53710;SDS011;39605;52.704;6.752;2023-10-08T13:05:26;5.30;;;0.40;;
53710;SDS011;39605;52.704;6.752;2023-10-08T13:07:56;2.75;;;0.30;;
53710;SDS011;39605;52.704;6.752;2023-10-08T13:10:28;3.53;;;0.30;;
53710;SDS011;39605;52.704;6.752;2023-10-08T13:12:56;4.45;;;0.55;;
53710;SDS011;39605;52.704;6.752;2023-10-08T13:15:23;3.85;;;0.40;;
53710;SDS011;39605;52.704;6.752;2023-10-08T13:17:54;5.13;;;0.40;;
53710;SDS011;39605;52.704;6.752;2023-10-08T13:20:20;4.32;;;0.40;;
53710;SDS011;39605;52.704;6.752;2023-10-08T13:22:46;4.47;;;0.50;;
53710;SDS011;39605;52.704;6.752;2023-10-08T13:25:12;3.72;;;0.40;;
53710;SDS011;39605;52.704;6.752;2023-10-08T13:27:42;3.28;;;0.40;;
53710;SDS011;39605;52.704;6.752;2023-10-08T13:30:09;4.57;;;0.50;;
53710;SDS011;39605;52.704;6.752;2023-10-08T13:32:35;7.45;;;0.40;;
53710;SDS011;39605;52.704;6.752;2023-10-08T13:35:05;3.83;;;0.30;;
53710;SDS011;39605;52.704;6.752;2023-10-08T13:37:35;4.20;;;0.47;;
53710;SDS011;39605;52.704;6.752;2023-10-08T13:40:01;3.15;;;0.30;;
53710;SDS011;39605;52.704;6.752;2023-10-08T13:42:28;3.80;;;0.30;;
53710;SDS011;39605;52.704;6.752;2023-10-08T13:44:57;2.35;;;0.40;;
53710;SDS011;39605;52.704;6.752;2023-10-08T13:47:25;3.72;;;0.40;;
53710;SDS011;39605;52.704;6.752;2023-10-08T13:49:53;3.13;;;0.38;;
53710;SDS011;39605;52.704;6.752;2023-10-08T13:52:20;3.38;;;0.30;;
53710;SDS011;39605;52.704;6.752;2023-10-08T13:54:46;3.30;;;0.32;;
53710;SDS011;39605;52.704;6.752;2023-10-08T13:57:18;5.25;;;0.60;;
53710;SDS011;39605;52.704;6.752;2023-10-08T13:59:45;4.30;;;0.47;;
53710;SDS011;39605;52.704;6.752;2023-10-08T14:02:12;3.67;;;0.68;;
53710;SDS011;39605;52.704;6.752;2023-10-08T14:04:41;3.78;;;0.60;;
53710;SDS011;39605;52.704;6.752;2023-10-08T14:07:11;3.92;;;0.50;;
53710;SDS011;39605;52.704;6.752;2023-10-08T14:09:41;3.83;;;0.60;;
53710;SDS011;39605;52.704;6.752;2023-10-08T14:12:10;3.05;;;0.68;;
53710;SDS011;39605;52.704;6.752;2023-10-08T14:14:36;7.30;;;0.60;;
53710;SDS011;39605;52.704;6.752;2023-10-08T14:17:06;3.25;;;0.68;;
53710;SDS011;39605;52.704;6.752;2023-10-08T14:19:35;5.45;;;0.60;;
53710;SDS011;39605;52.704;6.752;2023-10-08T14:22:04;4.22;;;0.60;;
53710;SDS011;39605;52.704;6.752;2023-10-08T14:24:33;4.97;;;0.50;;
53710;SDS011;39605;52.704;6.752;2023-10-08T14:27:03;4.78;;;0.70;;
53710;SDS011;39605;52.704;6.752;2023-10-08T14:29:35;5.72;;;0.63;;
53710;SDS011;39605;52.704;6.752;2023-10-08T14:32:03;5.00;;;0.55;;
53710;SDS011;39605;52.704;6.752;2023-10-08T14:34:34;3.10;;;0.55;;
53710;SDS011;39605;52.704;6.752;2023-10-08T14:37:12;2.08;;;0.52;;
53710;SDS011;39605;52.704;6.752;2023-10-08T14:39:57;4.45;;;0.47;;
53710;SDS011;39605;52.704;6.752;2023-10-08T14:42:42;9.75;;;0.95;;
53710;SDS011;39605;52.704;6.752;2023-10-08T14:45:21;4.95;;;0.57;;
53710;SDS011;39605;52.704;6.752;2023-10-08T14:47:49;4.97;;;0.63;;
53710;SDS011;39605;52.704;6.752;2023-10-08T14:50:15;4.55;;;0.40;;
53710;SDS011;39605;52.704;6.752;2023-10-08T14:52:44;5.50;;;0.60;;
53710;SDS011;39605;52.704;6.752;2023-10-08T14:55:12;3.42;;;0.60;;
53710;SDS011;39605;52.704;6.752;2023-10-08T14:57:38;8.48;;;0.77;;
53710;SDS011;39605;52.704;6.752;2023-10-08T15:00:07;7.57;;;0.70;;
53710;SDS011;39605;52.704;6.752;2023-10-08T15:02:34;6.97;;;0.75;;
53710;SDS011;39605;52.704;6.752;2023-10-08T15:05:00;4.95;;;0.68;;
53710;SDS011;39605;52.704;6.752;2023-10-08T15:07:29;3.22;;;0.40;;
53710;SDS011;39605;52.704;6.752;2023-10-08T15:09:56;5.32;;;1.05;;
53710;SDS011;39605;52.704;6.752;2023-10-08T15:12:23;4.68;;;0.70;;
53710;SDS011;39605;52.704;6.752;2023-10-08T15:14:51;3.72;;;0.43;;
53710;SDS011;39605;52.704;6.752;2023-10-08T15:17:17;3.70;;;0.45;;
53710;SDS011;39605;52.704;6.752;2023-10-08T15:19:43;3.47;;;0.60;;